createdAt,value
2019-03-11T00:00:29.505Z,1008.32
2019-03-11T00:01:29.475Z,1008.32
2019-03-11T00:02:29.476Z,1008.29
2019-03-11T00:03:29.448Z,1008.23
2019-03-11T00:04:29.451Z,1008.26
2019-03-11T00:05:29.427Z,1008.24
2019-03-11T00:06:29.422Z,1008.28
2019-03-11T00:07:29.406Z,1008.32
2019-03-11T00:08:29.405Z,1008.23
2019-03-11T00:09:29.389Z,1008.23
2019-03-11T00:10:29.376Z,1008.16
2019-03-11T00:11:29.374Z,1008.21
2019-03-11T00:12:29.356Z,1008.24
2019-03-11T00:13:29.349Z,1008.30
2019-03-11T00:14:29.334Z,1008.17
2019-03-11T00:15:29.319Z,1008.20
2019-03-11T00:16:29.313Z,1008.20
2019-03-11T00:17:29.297Z,1008.22
2019-03-11T00:18:29.287Z,1008.25
2019-03-11T00:19:29.282Z,1008.18
2019-03-11T00:20:29.289Z,1008.19
2019-03-11T00:21:29.263Z,1008.24
2019-03-11T00:22:29.259Z,1008.23
2019-03-11T00:23:29.237Z,1008.28
2019-03-11T00:24:29.228Z,1008.30
2019-03-11T00:25:29.230Z,1008.31
2019-03-11T00:26:29.227Z,1008.34
2019-03-11T00:27:29.219Z,1008.35
2019-03-11T00:28:29.212Z,1008.40
2019-03-11T00:29:29.172Z,1008.26
2019-03-11T00:30:29.173Z,1008.30
2019-03-11T00:31:29.156Z,1008.22
2019-03-11T00:32:29.157Z,1008.25
2019-03-11T00:33:29.153Z,1008.26
2019-03-11T00:34:29.135Z,1008.27
2019-03-11T00:35:29.115Z,1008.26
2019-03-11T00:36:29.106Z,1008.25
2019-03-11T00:37:29.101Z,1008.25
2019-03-11T00:38:29.082Z,1008.38
2019-03-11T00:39:29.076Z,1008.44
2019-03-11T00:40:29.074Z,1008.50
2019-03-11T00:41:29.060Z,1008.72
2019-03-11T00:42:29.066Z,1008.48
2019-03-11T00:43:29.037Z,1008.55
2019-03-11T00:44:29.027Z,1008.39
2019-03-11T00:45:29.032Z,1008.44
2019-03-11T00:46:29.014Z,1008.43
2019-03-11T00:47:28.997Z,1008.42
2019-03-11T00:48:29.005Z,1008.31
2019-03-11T00:49:28.975Z,1008.36
2019-03-11T00:50:28.964Z,1008.45
2019-03-11T00:51:28.981Z,1008.48
2019-03-11T00:52:29.049Z,1008.45
2019-03-11T00:53:28.939Z,1008.39
2019-03-11T00:54:28.930Z,1008.41
2019-03-11T00:55:28.916Z,1008.49
2019-03-11T00:56:28.918Z,1008.58
2019-03-11T00:57:28.901Z,1008.65
2019-03-11T00:58:28.909Z,1008.81
2019-03-11T00:59:28.883Z,1008.78
2019-03-11T01:00:28.872Z,1008.80
2019-03-11T01:01:28.855Z,1008.78
2019-03-11T01:02:28.848Z,1008.84
2019-03-11T01:03:28.835Z,1008.83
2019-03-11T01:04:28.840Z,1008.78
2019-03-11T01:05:28.823Z,1008.84
2019-03-11T01:06:28.820Z,1008.82
2019-03-11T01:07:28.802Z,1008.85
2019-03-11T01:08:29.205Z,1008.75
2019-03-11T01:09:28.773Z,1008.80
2019-03-11T01:10:28.778Z,1008.87
2019-03-11T01:11:28.756Z,1008.87
2019-03-11T01:12:28.747Z,1008.89
2019-03-11T01:13:28.741Z,1008.97
2019-03-11T01:14:28.728Z,1009.03
2019-03-11T01:15:28.721Z,1009.24
2019-03-11T01:16:28.705Z,1009.27
2019-03-11T01:17:28.714Z,1009.10
2019-03-11T01:18:28.689Z,1009.01
2019-03-11T01:19:28.688Z,1009.00
2019-03-11T01:20:28.674Z,1008.86
2019-03-11T01:21:28.655Z,1008.82
2019-03-11T01:22:28.652Z,1008.83
2019-03-11T01:23:28.640Z,1008.82
2019-03-11T01:24:28.628Z,1008.84
2019-03-11T01:25:28.616Z,1008.86
2019-03-11T01:26:28.633Z,1008.85
2019-03-11T01:27:28.590Z,1008.80
2019-03-11T01:28:28.584Z,1008.76
2019-03-11T01:29:28.585Z,1008.66
2019-03-11T01:30:28.559Z,1008.73
2019-03-11T01:31:28.564Z,1008.69
2019-03-11T01:32:28.542Z,1008.64
2019-03-11T01:33:28.533Z,1008.53
2019-03-11T01:34:28.518Z,1008.50
2019-03-11T01:35:28.524Z,1008.49
2019-03-11T01:36:28.510Z,1008.44
2019-03-11T01:37:28.506Z,1008.39
2019-03-11T01:38:28.481Z,1008.38
2019-03-11T01:39:28.478Z,1008.38
2019-03-11T01:40:28.455Z,1008.32
2019-03-11T01:41:28.458Z,1008.31
2019-03-11T01:42:28.434Z,1008.29
2019-03-11T01:43:28.441Z,1008.28
2019-03-11T01:44:28.414Z,1008.26
2019-03-11T01:45:28.409Z,1008.25
2019-03-11T01:46:28.416Z,1008.21
2019-03-11T01:47:28.406Z,1008.23
2019-03-11T01:48:28.370Z,1008.16
2019-03-11T01:49:28.364Z,1008.22
2019-03-11T01:50:28.358Z,1008.22
2019-03-11T01:51:28.347Z,1008.30
2019-03-11T01:52:28.347Z,1008.28
2019-03-11T01:53:28.311Z,1008.21
2019-03-11T01:54:28.328Z,1008.21
2019-03-11T01:55:28.326Z,1008.16
2019-03-11T01:56:28.294Z,1008.05
2019-03-11T01:57:28.280Z,1008.08
2019-03-11T01:58:28.282Z,1007.99
2019-03-11T01:59:28.257Z,1008.02
2019-03-11T02:00:28.263Z,1008.02
2019-03-11T02:01:28.235Z,1007.95
2019-03-11T02:02:28.229Z,1007.96
2019-03-11T02:03:28.216Z,1008.01
2019-03-11T02:04:28.207Z,1008.01
2019-03-11T02:05:28.205Z,1008.03
2019-03-11T02:06:28.184Z,1008.07
2019-03-11T02:07:28.174Z,1008.02
2019-03-11T02:08:28.166Z,1007.99
2019-03-11T02:09:28.151Z,1008.02
2019-03-11T02:10:28.145Z,1008.02
2019-03-11T02:11:28.143Z,1008.00
2019-03-11T02:12:28.120Z,1008.02
2019-03-11T02:13:28.126Z,1008.01
2019-03-11T02:14:28.097Z,1008.01
2019-03-11T02:15:28.094Z,1008.02
2019-03-11T02:16:28.078Z,1008.06
2019-03-11T02:17:28.096Z,1008.06
2019-03-11T02:18:28.055Z,1008.04
2019-03-11T02:19:28.046Z,1008.08
2019-03-11T02:20:28.027Z,1008.07
2019-03-11T02:21:28.026Z,1008.08
2019-03-11T02:22:28.034Z,1008.12
2019-03-11T02:23:28.002Z,1008.11
2019-03-11T02:24:28.015Z,1008.12
2019-03-11T02:25:27.984Z,1008.21
2019-03-11T02:26:27.974Z,1008.09
2019-03-11T02:27:27.959Z,1008.22
2019-03-11T02:28:27.956Z,1008.32
2019-03-11T02:29:27.950Z,1008.35
2019-03-11T02:30:27.935Z,1008.48
2019-03-11T02:31:27.921Z,1008.49
2019-03-11T02:32:28.770Z,1008.36
2019-03-11T02:33:27.912Z,1008.28
2019-03-11T02:34:27.889Z,1008.17
2019-03-11T02:35:27.882Z,1008.18
2019-03-11T02:36:27.866Z,1008.15
2019-03-11T02:37:27.850Z,1008.07
2019-03-11T02:38:27.842Z,1008.05
2019-03-11T02:39:27.852Z,1007.97
2019-03-11T02:40:27.830Z,1007.91
2019-03-11T02:41:27.814Z,1007.90
2019-03-11T02:42:27.799Z,1007.98
2019-03-11T02:43:27.789Z,1007.89
2019-03-11T02:44:27.773Z,1007.89
2019-03-11T02:45:27.783Z,1007.93
2019-03-11T02:46:27.782Z,1007.97
2019-03-11T02:47:27.753Z,1007.91
2019-03-11T02:48:27.741Z,1007.87
2019-03-11T02:49:27.730Z,1007.90
2019-03-11T02:50:27.729Z,1007.97
2019-03-11T02:51:27.704Z,1007.90
2019-03-11T02:52:27.700Z,1007.92
2019-03-11T02:53:27.694Z,1007.94
2019-03-11T02:54:27.675Z,1007.94
2019-03-11T02:55:27.684Z,1007.94
2019-03-11T02:56:27.653Z,1007.91
2019-03-11T02:57:27.652Z,1007.93
2019-03-11T02:58:27.633Z,1007.96
2019-03-11T02:59:27.627Z,1007.96
2019-03-11T03:00:27.614Z,1007.97
2019-03-11T03:01:27.651Z,1007.97
2019-03-11T03:02:27.602Z,1008.12
2019-03-11T03:03:27.585Z,1008.08
2019-03-11T03:04:27.572Z,1008.03
2019-03-11T03:05:27.564Z,1008.05
2019-03-11T03:06:27.557Z,1008.07
2019-03-11T03:07:27.548Z,1008.01
2019-03-11T03:08:27.538Z,1008.00
2019-03-11T03:09:27.521Z,1008.00
2019-03-11T03:10:27.511Z,1007.94
2019-03-11T03:11:27.493Z,1007.98
2019-03-11T03:12:27.490Z,1007.98
2019-03-11T03:13:27.495Z,1007.93
2019-03-11T03:14:27.480Z,1007.94
2019-03-11T03:15:27.447Z,1007.94
2019-03-11T03:16:27.446Z,1007.99
2019-03-11T03:17:27.471Z,1007.95
2019-03-11T03:18:27.430Z,1007.95
2019-03-11T03:19:27.443Z,1007.97
2019-03-11T03:20:27.401Z,1008.00
2019-03-11T03:21:27.399Z,1007.99
2019-03-11T03:22:27.388Z,1007.94
2019-03-11T03:23:27.383Z,1007.97
2019-03-11T03:24:27.355Z,1007.98
2019-03-11T03:25:33.942Z,1008.00
2019-03-11T03:26:28.051Z,1008.05
2019-03-11T03:27:27.328Z,1008.00
2019-03-11T03:28:27.320Z,1008.04
2019-03-11T03:29:27.314Z,1008.02
2019-03-11T03:30:27.294Z,1008.04
2019-03-11T03:31:27.299Z,1008.07
2019-03-11T03:32:27.282Z,1008.13
2019-03-11T03:33:27.274Z,1008.06
2019-03-11T03:34:28.115Z,1008.05
2019-03-11T03:35:27.259Z,1008.09
2019-03-11T03:36:27.228Z,1008.05
2019-03-11T03:37:27.223Z,1008.00
2019-03-11T03:38:31.002Z,1008.07
2019-03-11T03:39:27.203Z,1008.09
2019-03-11T03:40:27.191Z,1008.04
2019-03-11T03:41:27.187Z,1008.05
2019-03-11T03:42:27.176Z,1008.02
2019-03-11T03:43:27.153Z,1007.97
2019-03-11T03:44:27.162Z,1007.97
2019-03-11T03:45:27.146Z,1007.94
2019-03-11T03:46:27.129Z,1007.94
2019-03-11T03:47:27.129Z,1007.95
2019-03-11T03:48:27.173Z,1008.00
2019-03-11T03:49:27.096Z,1007.95
2019-03-11T03:50:27.086Z,1007.94
2019-03-11T03:51:27.078Z,1007.94
2019-03-11T03:52:27.067Z,1007.97
2019-03-11T03:53:27.059Z,1007.95
2019-03-11T03:54:27.043Z,1007.98
2019-03-11T03:55:27.052Z,1008.04
2019-03-11T03:56:27.037Z,1008.04
2019-03-11T03:57:27.019Z,1008.05
2019-03-11T03:58:27.009Z,1008.04
2019-03-11T03:59:27.017Z,1008.01
2019-03-11T04:00:26.990Z,1007.96
2019-03-11T04:01:26.964Z,1007.96
2019-03-11T04:02:26.971Z,1007.99
2019-03-11T04:03:26.951Z,1007.98
2019-03-11T04:04:26.948Z,1007.97
2019-03-11T04:05:26.944Z,1007.95
2019-03-11T04:06:26.919Z,1007.95
2019-03-11T04:07:26.906Z,1007.95
2019-03-11T04:08:26.896Z,1008.01
2019-03-11T04:09:26.904Z,1007.95
2019-03-11T04:10:26.875Z,1007.94
2019-03-11T04:11:26.876Z,1007.92
2019-03-11T04:12:26.891Z,1007.91
2019-03-11T04:13:26.879Z,1007.89
2019-03-11T04:14:26.840Z,1007.97
2019-03-11T04:15:26.867Z,1007.96
2019-03-11T04:16:26.825Z,1008.03
2019-03-11T04:17:26.807Z,1008.02
2019-03-11T04:18:26.794Z,1008.04
2019-03-11T04:19:29.409Z,1008.07
2019-03-11T04:20:26.763Z,1008.12
2019-03-11T04:21:26.758Z,1008.07
2019-03-11T04:22:26.749Z,1008.13
2019-03-11T04:23:26.745Z,1008.12
2019-03-11T04:24:26.731Z,1008.13
2019-03-11T04:25:26.726Z,1008.14
2019-03-11T04:26:26.714Z,1008.12
2019-03-11T04:27:26.692Z,1008.14
2019-03-11T04:28:26.691Z,1008.16
2019-03-11T04:29:26.680Z,1008.20
2019-03-11T04:30:26.672Z,1008.17
2019-03-11T04:31:26.646Z,1008.19
2019-03-11T04:32:26.659Z,1008.15
2019-03-11T04:33:26.640Z,1008.20
2019-03-11T04:34:26.629Z,1008.21
2019-03-11T04:35:26.621Z,1008.19
2019-03-11T04:36:26.604Z,1008.20
2019-03-11T04:37:26.594Z,1008.26
2019-03-11T04:38:26.582Z,1008.18
2019-03-11T04:39:26.564Z,1008.16
2019-03-11T04:40:26.581Z,1008.19
2019-03-11T04:41:26.546Z,1008.12
2019-03-11T04:42:26.537Z,1008.08
2019-03-11T04:43:26.536Z,1008.09
2019-03-11T04:44:26.519Z,1008.06
2019-03-11T04:45:26.507Z,1008.13
2019-03-11T04:46:26.493Z,1008.10
2019-03-11T04:47:26.483Z,1008.12
2019-03-11T04:48:26.481Z,1008.07
2019-03-11T04:49:26.485Z,1008.08
2019-03-11T04:50:26.472Z,1008.13
2019-03-11T04:51:26.444Z,1008.13
2019-03-11T04:52:26.432Z,1008.12
2019-03-11T04:53:26.436Z,1008.14
2019-03-11T04:54:26.418Z,1008.15
2019-03-11T04:55:26.417Z,1008.12
2019-03-11T04:56:26.385Z,1008.15
2019-03-11T04:57:26.403Z,1008.13
2019-03-11T04:58:26.367Z,1008.17
2019-03-11T04:59:26.385Z,1008.16
2019-03-11T05:00:26.360Z,1008.18
2019-03-11T05:01:26.350Z,1008.20
2019-03-11T05:02:26.329Z,1008.22
2019-03-11T05:03:26.312Z,1008.23
2019-03-11T05:04:26.306Z,1008.31
2019-03-11T05:05:26.294Z,1008.37
2019-03-11T05:06:26.288Z,1008.47
2019-03-11T05:07:26.269Z,1008.46
2019-03-11T05:08:26.265Z,1008.59
2019-03-11T05:09:26.255Z,1008.59
2019-03-11T05:10:26.256Z,1008.45
2019-03-11T05:11:26.228Z,1008.55
2019-03-11T05:12:26.222Z,1008.56
2019-03-11T05:13:26.214Z,1008.78
2019-03-11T05:14:26.199Z,1008.88
2019-03-11T05:15:26.188Z,1008.77
2019-03-11T05:16:26.180Z,1008.69
2019-03-11T05:17:26.182Z,1008.72
2019-03-11T05:18:26.153Z,1008.72
2019-03-11T05:19:26.175Z,1008.85
2019-03-11T05:20:26.156Z,1008.92
2019-03-11T05:21:26.124Z,1008.82
2019-03-11T05:22:26.118Z,1008.70
2019-03-11T05:23:26.120Z,1008.76
2019-03-11T05:24:26.094Z,1008.70
2019-03-11T05:25:26.085Z,1008.64
2019-03-11T05:26:26.063Z,1008.69
2019-03-11T05:27:26.078Z,1008.73
2019-03-11T05:28:26.053Z,1008.77
2019-03-11T05:29:26.046Z,1008.74
2019-03-11T05:30:26.032Z,1008.71
2019-03-11T05:31:26.015Z,1008.61
2019-03-11T05:32:26.002Z,1008.61
2019-03-11T05:33:26.001Z,1008.67
2019-03-11T05:34:25.989Z,1008.69
2019-03-11T05:35:25.971Z,1008.74
2019-03-11T05:36:27.891Z,1008.70
2019-03-11T05:37:25.950Z,1008.77
2019-03-11T05:38:25.934Z,1008.80
2019-03-11T05:39:25.931Z,1008.77
2019-03-11T05:40:25.915Z,1008.75
2019-03-11T05:41:25.937Z,1008.79
2019-03-11T05:42:25.900Z,1008.78
2019-03-11T05:43:25.889Z,1008.74
2019-03-11T05:44:25.875Z,1008.72
2019-03-11T05:45:25.877Z,1008.74
2019-03-11T05:46:25.845Z,1008.84
2019-03-11T05:47:25.852Z,1008.84
2019-03-11T05:48:25.830Z,1009.00
2019-03-11T05:49:25.825Z,1008.97
2019-03-11T05:50:25.812Z,1008.94
2019-03-11T05:51:31.628Z,1008.95
2019-03-11T05:52:25.795Z,1008.97
2019-03-11T05:53:25.777Z,1008.86
2019-03-11T05:54:25.765Z,1008.82
2019-03-11T05:55:25.749Z,1008.93
2019-03-11T05:56:25.738Z,1008.67
2019-03-11T05:57:25.758Z,1008.74
2019-03-11T05:58:25.718Z,1008.84
2019-03-11T05:59:25.709Z,1008.90
2019-03-11T06:00:25.697Z,1008.82
2019-03-11T06:01:25.712Z,1008.92
2019-03-11T06:02:25.678Z,1008.97
2019-03-11T06:03:25.687Z,1008.95
2019-03-11T06:04:25.658Z,1008.90
2019-03-11T06:05:25.659Z,1008.92
2019-03-11T06:06:25.635Z,1008.89
2019-03-11T06:07:25.619Z,1008.96
2019-03-11T06:08:25.615Z,1008.94
2019-03-11T06:09:25.602Z,1008.97
2019-03-11T06:10:25.594Z,1009.01
2019-03-11T06:11:25.578Z,1009.07
2019-03-11T06:12:25.562Z,1009.17
2019-03-11T06:13:35.575Z,1009.14
2019-03-11T06:14:25.541Z,1009.18
2019-03-11T06:15:25.529Z,1009.24
2019-03-11T06:16:25.511Z,1009.29
2019-03-11T06:17:25.504Z,1009.32
2019-03-11T06:18:25.496Z,1009.36
2019-03-11T06:19:25.483Z,1009.34
2019-03-11T06:20:25.474Z,1009.35
2019-03-11T06:21:25.465Z,1009.35
2019-03-11T06:22:25.458Z,1009.28
2019-03-11T06:23:25.502Z,1009.25
2019-03-11T06:24:25.443Z,1009.21
2019-03-11T06:25:25.572Z,1009.22
2019-03-11T06:26:25.409Z,1009.26
2019-03-11T06:27:25.396Z,1009.29
2019-03-11T06:28:25.378Z,1009.33
2019-03-11T06:29:30.592Z,1009.33
2019-03-11T06:30:25.354Z,1009.36
2019-03-11T06:31:25.554Z,1009.33
2019-03-11T06:32:25.357Z,1009.32
2019-03-11T06:33:25.333Z,1009.32
2019-03-11T06:34:25.315Z,1009.27
2019-03-11T06:35:25.313Z,1009.29
2019-03-11T06:36:25.295Z,1009.29
2019-03-11T06:37:25.291Z,1009.28
2019-03-11T06:38:25.319Z,1009.30
2019-03-11T06:39:25.268Z,1009.31
2019-03-11T06:40:25.267Z,1009.29
2019-03-11T06:41:25.243Z,1009.35
2019-03-11T06:42:25.229Z,1009.31
2019-03-11T06:43:25.267Z,1009.31
2019-03-11T06:44:25.209Z,1009.28
2019-03-11T06:45:25.196Z,1009.37
2019-03-11T06:46:25.196Z,1009.30
2019-03-11T06:47:25.175Z,1009.24
2019-03-11T06:48:26.089Z,1009.24
2019-03-11T06:49:25.153Z,1009.27
2019-03-11T06:50:25.150Z,1009.27
2019-03-11T06:51:25.132Z,1009.30
2019-03-11T06:52:25.144Z,1009.33
2019-03-11T06:53:25.122Z,1009.31
2019-03-11T06:54:25.102Z,1009.31
2019-03-11T06:55:25.105Z,1009.32
2019-03-11T06:56:25.101Z,1009.35
2019-03-11T06:57:25.081Z,1009.29
2019-03-11T06:58:25.056Z,1009.31
2019-03-11T06:59:25.605Z,1009.41
2019-03-11T07:00:25.034Z,1009.36
2019-03-11T07:01:25.028Z,1009.46
2019-03-11T07:02:25.016Z,1009.46
2019-03-11T07:03:25.006Z,1009.49
2019-03-11T07:04:25.002Z,1009.53
2019-03-11T07:05:24.991Z,1009.47
2019-03-11T07:06:24.971Z,1009.50
2019-03-11T07:07:24.959Z,1009.50
2019-03-11T07:08:24.954Z,1009.49
2019-03-11T07:09:25.015Z,1009.53
2019-03-11T07:10:24.943Z,1009.55
2019-03-11T07:11:24.913Z,1009.53
2019-03-11T07:12:24.920Z,1009.57
2019-03-11T07:13:24.906Z,1009.62
2019-03-11T07:14:24.883Z,1009.55
2019-03-11T07:15:24.878Z,1009.63
2019-03-11T07:16:24.881Z,1009.64
2019-03-11T07:17:24.866Z,1009.67
2019-03-11T07:18:24.854Z,1009.73
2019-03-11T07:19:24.837Z,1009.77
2019-03-11T07:20:24.823Z,1009.85
2019-03-11T07:21:24.821Z,1009.85
2019-03-11T07:22:24.874Z,1009.93
2019-03-11T07:23:24.798Z,1009.92
2019-03-11T07:24:24.801Z,1009.94
2019-03-11T07:25:24.776Z,1009.84
2019-03-11T07:26:24.767Z,1009.88
2019-03-11T07:27:27.680Z,1009.90
2019-03-11T07:28:24.748Z,1009.93
2019-03-11T07:29:25.632Z,1009.87
2019-03-11T07:30:24.721Z,1009.88
2019-03-11T07:31:24.771Z,1009.90
2019-03-11T07:32:24.706Z,1009.98
2019-03-11T07:33:24.694Z,1010.01
2019-03-11T07:34:24.683Z,1010.08
2019-03-11T07:35:24.675Z,1010.04
2019-03-11T07:36:24.659Z,1009.95
2019-03-11T07:37:24.655Z,1010.16
2019-03-11T07:38:24.652Z,1010.10
2019-03-11T07:39:24.632Z,1010.18
2019-03-11T07:40:29.814Z,1010.23
2019-03-11T07:41:24.614Z,1010.24
2019-03-11T07:42:24.599Z,1010.29
2019-03-11T07:43:24.595Z,1010.31
2019-03-11T07:44:24.589Z,1010.31
2019-03-11T07:45:24.582Z,1010.33
2019-03-11T07:46:24.558Z,1010.36
2019-03-11T07:47:24.550Z,1010.35
2019-03-11T07:48:24.534Z,1010.38
2019-03-11T07:49:24.536Z,1010.40
2019-03-11T07:50:24.522Z,1010.38
2019-03-11T07:51:24.519Z,1010.41
2019-03-11T07:52:24.502Z,1010.42
2019-03-11T07:53:24.478Z,1010.37
2019-03-11T07:54:35.273Z,1010.41
2019-03-11T07:55:24.482Z,1010.42
2019-03-11T07:56:24.462Z,1010.45
2019-03-11T07:57:24.442Z,1010.47
2019-03-11T07:58:24.435Z,1010.47
2019-03-11T07:59:24.450Z,1010.47
2019-03-11T08:00:24.416Z,1010.46
2019-03-11T08:01:24.420Z,1010.47
2019-03-11T08:02:24.414Z,1010.48
2019-03-11T08:03:24.376Z,1010.47
2019-03-11T08:04:24.366Z,1010.50
2019-03-11T08:05:24.362Z,1010.47
2019-03-11T08:06:24.342Z,1010.54
2019-03-11T08:07:24.349Z,1010.43
2019-03-11T08:08:24.331Z,1010.44
2019-03-11T08:09:24.378Z,1010.41
2019-03-11T08:10:24.316Z,1010.41
2019-03-11T08:11:24.365Z,1010.46
2019-03-11T08:12:24.286Z,1010.50
2019-03-11T08:13:24.280Z,1010.46
2019-03-11T08:14:24.265Z,1010.45
2019-03-11T08:15:24.256Z,1010.43
2019-03-11T08:16:24.245Z,1010.44
2019-03-11T08:17:24.234Z,1010.47
2019-03-11T08:18:34.478Z,1010.46
2019-03-11T08:19:24.222Z,1010.52
2019-03-11T08:20:24.212Z,1010.46
2019-03-11T08:21:24.198Z,1010.50
2019-03-11T08:22:24.192Z,1010.53
2019-03-11T08:23:24.191Z,1010.54
2019-03-11T08:24:24.173Z,1010.55
2019-03-11T08:25:24.164Z,1010.56
2019-03-11T08:26:24.154Z,1010.52
2019-03-11T08:27:24.144Z,1010.56
2019-03-11T08:28:24.143Z,1010.57
2019-03-11T08:29:24.123Z,1010.52
2019-03-11T08:30:24.122Z,1010.55
2019-03-11T08:31:24.098Z,1010.54
2019-03-11T08:32:24.097Z,1010.67
2019-03-11T08:33:24.079Z,1010.66
2019-03-11T08:34:24.075Z,1010.63
2019-03-11T08:35:24.067Z,1010.64
2019-03-11T08:36:24.054Z,1010.68
2019-03-11T08:37:24.046Z,1010.71
2019-03-11T08:38:24.634Z,1010.77
2019-03-11T08:39:24.019Z,1010.78
2019-03-11T08:40:24.018Z,1010.68
2019-03-11T08:41:24.013Z,1010.74
2019-03-11T08:42:24.000Z,1010.82
2019-03-11T08:43:23.984Z,1010.81
2019-03-11T08:44:23.974Z,1010.79
2019-03-11T08:45:23.965Z,1010.84
2019-03-11T08:46:23.961Z,1010.85
2019-03-11T08:47:23.943Z,1010.98
2019-03-11T08:48:23.943Z,1010.92
2019-03-11T08:49:23.929Z,1010.96
2019-03-11T08:50:23.923Z,1010.99
2019-03-11T08:51:23.909Z,1010.99
2019-03-11T08:52:23.907Z,1010.98
2019-03-11T08:53:23.893Z,1010.94
2019-03-11T08:54:23.869Z,1011.03
2019-03-11T08:55:23.923Z,1011.00
2019-03-11T08:56:23.856Z,1011.04
2019-03-11T08:57:23.854Z,1011.04
2019-03-11T08:58:23.838Z,1011.04
2019-03-11T08:59:23.831Z,1011.08
2019-03-11T09:00:23.818Z,1011.08
2019-03-11T09:01:23.805Z,1011.09
2019-03-11T09:02:23.797Z,1011.13
2019-03-11T09:03:23.791Z,1011.11
2019-03-11T09:04:23.781Z,1011.05
2019-03-11T09:05:23.777Z,1011.12
2019-03-11T09:06:23.762Z,1011.09
2019-03-11T09:07:23.753Z,1011.13
2019-03-11T09:08:23.736Z,1011.09
2019-03-11T09:09:23.731Z,1011.12
2019-03-11T09:10:23.722Z,1011.17
2019-03-11T09:11:23.709Z,1011.06
2019-03-11T09:12:23.720Z,1011.18
2019-03-11T09:13:23.700Z,1011.12
2019-03-11T09:14:23.679Z,1011.17
2019-03-11T09:15:23.668Z,1011.19
2019-03-11T09:16:23.662Z,1011.18
2019-03-11T09:17:23.656Z,1011.18
2019-03-11T09:18:23.646Z,1011.16
2019-03-11T09:19:23.635Z,1011.19
2019-03-11T09:20:23.624Z,1011.22
2019-03-11T09:21:23.612Z,1011.16
2019-03-11T09:22:23.603Z,1011.21
2019-03-11T09:23:23.610Z,1011.28
2019-03-11T09:24:23.589Z,1011.34
2019-03-11T09:25:23.581Z,1011.29
2019-03-11T09:26:23.568Z,1011.33
2019-03-11T09:27:23.556Z,1011.15
2019-03-11T09:28:23.640Z,1011.27
2019-03-11T09:29:23.539Z,1011.26
2019-03-11T09:30:23.533Z,1011.21
2019-03-11T09:31:23.522Z,1011.23
2019-03-11T09:32:23.517Z,1011.24
2019-03-11T09:33:23.501Z,1011.27
2019-03-11T09:34:23.492Z,1011.24
2019-03-11T09:35:23.485Z,1011.26
2019-03-11T09:36:23.473Z,1011.26
2019-03-11T09:37:23.465Z,1011.32
2019-03-11T09:38:23.449Z,1011.39
2019-03-11T09:39:23.446Z,1011.29
2019-03-11T09:40:23.434Z,1011.31
2019-03-11T09:41:23.425Z,1011.31
2019-03-11T09:42:23.417Z,1011.30
2019-03-11T09:43:23.408Z,1011.31
2019-03-11T09:44:23.407Z,1011.32
2019-03-11T09:45:24.450Z,1011.27
2019-03-11T09:46:23.380Z,1011.26
2019-03-11T09:47:23.374Z,1011.33
2019-03-11T09:48:23.357Z,1011.30
2019-03-11T09:49:23.363Z,1011.38
2019-03-11T09:50:23.342Z,1011.31
2019-03-11T09:51:23.333Z,1011.30
2019-03-11T09:52:23.321Z,1011.19
2019-03-11T09:53:23.315Z,1011.35
2019-03-11T09:54:23.311Z,1011.30
2019-03-11T09:55:23.297Z,1011.33
2019-03-11T09:56:23.295Z,1011.29
2019-03-11T09:57:23.286Z,1011.31
2019-03-11T09:58:23.280Z,1011.33
2019-03-11T09:59:23.262Z,1011.38
2019-03-11T10:00:24.174Z,1011.33
2019-03-11T10:01:23.245Z,1011.33
2019-03-11T10:02:23.235Z,1011.38
2019-03-11T10:03:23.232Z,1011.31
2019-03-11T10:04:23.224Z,1011.43
2019-03-11T10:05:23.211Z,1011.40
2019-03-11T10:06:23.201Z,1011.46
2019-03-11T10:07:23.199Z,1011.49
2019-03-11T10:08:23.184Z,1011.36
2019-03-11T10:09:23.182Z,1011.42
2019-03-11T10:10:23.169Z,1011.51
2019-03-11T10:11:23.159Z,1011.49
2019-03-11T10:12:23.146Z,1011.48
2019-03-11T10:13:23.142Z,1011.52
2019-03-11T10:14:23.132Z,1011.54
2019-03-11T10:15:23.148Z,1011.51
2019-03-11T10:16:23.126Z,1011.47
2019-03-11T10:17:23.119Z,1011.56
2019-03-11T10:18:23.104Z,1011.58
2019-03-11T10:19:23.092Z,1011.55
2019-03-11T10:20:23.098Z,1011.57
2019-03-11T10:21:23.087Z,1011.62
2019-03-11T10:22:23.071Z,1011.55
2019-03-11T10:23:31.700Z,1011.56
2019-03-11T10:24:23.054Z,1011.54
2019-03-11T10:25:23.038Z,1011.59
2019-03-11T10:26:23.054Z,1011.62
2019-03-11T10:27:23.034Z,1011.59
2019-03-11T10:28:23.030Z,1011.67
2019-03-11T10:29:23.015Z,1011.64
2019-03-11T10:30:23.021Z,1011.60
2019-03-11T10:31:22.999Z,1011.54
2019-03-11T10:32:22.987Z,1011.60
2019-03-11T10:33:22.984Z,1011.64
2019-03-11T10:34:22.967Z,1011.64
2019-03-11T10:35:32.438Z,1011.65
2019-03-11T10:36:22.958Z,1011.57
2019-03-11T10:37:22.939Z,1011.57
2019-03-11T10:38:22.942Z,1011.54
2019-03-11T10:39:22.939Z,1011.61
2019-03-11T10:40:22.925Z,1011.52
2019-03-11T10:41:22.918Z,1011.63
2019-03-11T10:42:22.904Z,1011.62
2019-03-11T10:43:22.904Z,1011.61
2019-03-11T10:44:22.882Z,1011.59
2019-03-11T10:45:31.004Z,1011.60
2019-03-11T10:46:22.871Z,1011.63
2019-03-11T10:47:22.867Z,1011.67
2019-03-11T10:48:22.859Z,1011.68
2019-03-11T10:49:22.852Z,1011.69
2019-03-11T10:50:22.844Z,1011.76
2019-03-11T10:51:22.839Z,1011.72
2019-03-11T10:52:22.823Z,1011.78
2019-03-11T10:53:22.820Z,1011.66
2019-03-11T10:54:22.820Z,1011.72
2019-03-11T10:55:22.805Z,1011.62
2019-03-11T10:56:22.788Z,1011.60
2019-03-11T10:57:22.775Z,1011.73
2019-03-11T10:58:22.778Z,1011.71
2019-03-11T10:59:22.768Z,1011.69
2019-03-11T11:00:22.780Z,1011.79
2019-03-11T11:01:22.757Z,1011.72
2019-03-11T11:02:22.763Z,1011.64
2019-03-11T11:03:22.735Z,1011.59
2019-03-11T11:04:22.724Z,1011.76
2019-03-11T11:05:22.715Z,1011.65
2019-03-11T11:06:22.719Z,1011.67
2019-03-11T11:07:22.702Z,1011.71
2019-03-11T11:08:22.708Z,1011.74
2019-03-11T11:09:22.684Z,1011.69
2019-03-11T11:10:22.684Z,1011.71
2019-03-11T11:11:22.679Z,1011.68
2019-03-11T11:12:22.666Z,1011.74
2019-03-11T11:13:22.656Z,1011.74
2019-03-11T11:14:22.675Z,1011.86
2019-03-11T11:15:22.644Z,1011.74
2019-03-11T11:16:22.625Z,1011.87
2019-03-11T11:17:22.615Z,1011.79
2019-03-11T11:18:22.618Z,1011.77
2019-03-11T11:19:22.614Z,1011.81
2019-03-11T11:20:22.601Z,1011.92
2019-03-11T11:21:22.597Z,1011.85
2019-03-11T11:22:22.578Z,1011.88
2019-03-11T11:23:22.575Z,1011.81
2019-03-11T11:24:22.565Z,1011.88
2019-03-11T11:25:22.556Z,1011.89
2019-03-11T11:26:22.561Z,1011.90
2019-03-11T11:27:22.542Z,1011.93
2019-03-11T11:28:22.538Z,1011.88
2019-03-11T11:29:22.527Z,1011.92
2019-03-11T11:30:22.520Z,1011.87
2019-03-11T11:31:22.510Z,1011.84
2019-03-11T11:32:22.504Z,1011.86
2019-03-11T11:33:22.498Z,1011.93
2019-03-11T11:34:22.493Z,1012.02
2019-03-11T11:35:22.472Z,1012.03
2019-03-11T11:36:22.471Z,1012.03
2019-03-11T11:37:22.461Z,1012.16
2019-03-11T11:38:22.459Z,1012.14
2019-03-11T11:39:22.453Z,1012.17
2019-03-11T11:40:22.438Z,1012.08
2019-03-11T11:41:22.430Z,1012.16
2019-03-11T11:42:22.416Z,1012.18
2019-03-11T11:43:22.415Z,1012.22
2019-03-11T11:44:22.416Z,1012.15
2019-03-11T11:45:22.411Z,1012.21
2019-03-11T11:46:22.395Z,1012.24
2019-03-11T11:47:22.383Z,1012.14
2019-03-11T11:48:22.381Z,1012.29
2019-03-11T11:49:22.367Z,1012.19
2019-03-11T11:50:22.358Z,1012.23
2019-03-11T11:51:22.368Z,1012.21
2019-03-11T11:52:22.341Z,1012.23
2019-03-11T11:53:24.944Z,1012.21
2019-03-11T11:54:22.334Z,1012.25
2019-03-11T11:55:22.323Z,1012.18
2019-03-11T11:56:22.314Z,1012.25
2019-03-11T11:57:22.308Z,1012.32
2019-03-11T11:58:22.300Z,1012.33
2019-03-11T11:59:22.293Z,1012.38
2019-03-11T12:00:22.279Z,1012.33
2019-03-11T12:01:22.274Z,1012.41
2019-03-11T12:02:22.270Z,1012.48
2019-03-11T12:03:22.259Z,1012.49
2019-03-11T12:04:22.252Z,1012.45
2019-03-11T12:05:22.255Z,1012.47